Time;durP1;ratioP1;P1;durP2;ratioP2;P2;SDS_P1;SDS_P2;PMS_P1;PMS_P2;Temp;Humidity;BMP_temperature;BMP_pressure;BME280_temperature;BME280_humidity;BME280_pressure;Samples;Min_cycle;Max_cycle;Signal;HPM_P1;HPM_P2
2022/10/04 00:03:09;;;;;;;149.00;11.88;;;;;;;8.91;67.27;100758.41;10402574;28;20046;-80
2022/10/04 00:08:23;;;;;;;186.15;15.43;;;;;;;8.82;67.42;100760.47;10412886;28;20111;-80
2022/10/04 00:13:27;;;;;;;31.95;7.85;;;;;;;8.76;67.42;100739.84;10399978;28;20056;-81
2022/10/04 00:18:43;;;;;;;46.35;7.18;;;;;;;8.79;67.47;100739.72;10416895;28;20076;-81
2022/10/04 00:23:46;;;;;;;114.82;10.57;;;;;;;9.02;67.10;100732.72;10399255;28;20056;-81
2022/10/04 00:28:48;;;;;;;321.50;15.45;;;;;;;8.93;66.89;100731.34;10399039;28;20061;-83
2022/10/04 00:34:14;;;;;;;93.63;13.50;;;;;;;8.93;67.12;100726.13;10400196;28;20056;-83
2022/10/04 00:39:24;;;;;;;116.88;11.40;;;;;;;9.02;66.94;100724.88;10397853;28;20069;-83
2022/10/04 00:44:53;;;;;;;71.35;12.15;;;;;;;8.90;67.26;100736.69;10415038;28;20053;-83
2022/10/04 00:50:17;;;;;;;59.30;9.07;;;;;;;9.04;67.22;100712.63;10398027;28;20060;-83
2022/10/04 00:55:43;;;;;;;154.48;13.85;;;;;;;8.77;67.51;100725.88;10417590;28;20498;-83
2022/10/04 01:00:47;;;;;;;125.57;10.75;;;;;;;8.91;67.41;100727.94;10399847;28;20057;-83
2022/10/04 01:05:54;;;;;;;330.15;20.60;;;;;;;8.83;67.45;100727.41;10394475;28;20084;-83
2022/10/04 01:11:02;;;;;;;96.43;9.88;;;;;;;8.92;68.02;100727.03;10418497;28;20045;-83
2022/10/04 01:22:33;;;;;;;136.27;13.48;;;;;;;8.94;68.15;100706.09;10413169;28;20124;-83
2022/10/04 01:27:36;;;;;;;195.80;20.00;;;;;;;9.07;68.00;100697.72;10413455;28;20057;-83
2022/10/04 01:32:39;;;;;;;177.43;11.80;;;;;;;9.14;67.48;100682.63;10413756;28;20061;-83
2022/10/04 01:37:40;;;;;;;88.90;11.38;;;;;;;9.05;67.58;100667.38;10412959;28;20510;-83
2022/10/04 01:42:53;;;;;;;134.65;13.98;;;;;;;9.00;67.87;100680.59;10411966;28;20521;-82
2022/10/04 01:48:00;;;;;;;276.83;21.60;;;;;;;8.97;67.71;100675.53;10410972;28;20053;-83
2022/10/04 01:53:11;;;;;;;91.68;11.40;;;;;;;8.86;68.09;100677.72;10395632;28;20510;-83
2022/10/04 01:58:21;;;;;;;266.55;20.30;;;;;;;8.98;67.64;100665.91;10398591;28;20064;-83
2022/10/04 02:03:33;;;;;;;260.88;20.35;;;;;;;8.95;67.63;100663.44;10397932;28;20052;-83
2022/10/04 02:08:39;;;;;;;210.05;19.52;;;;;;;8.82;67.80;100660.50;10402580;28;20134;-83
2022/10/04 02:13:44;;;;;;;310.48;19.45;;;;;;;8.73;68.01;100656.50;10417667;28;20075;-82
2022/10/04 02:18:47;;;;;;;399.65;21.45;;;;;;;8.57;68.26;100659.78;10402444;28;20049;-83
2022/10/04 02:23:51;;;;;;;493.40;21.17;;;;;;;8.38;68.48;100674.47;10400278;28;20046;-83
2022/10/04 02:28:53;;;;;;;381.05;17.10;;;;;;;8.31;68.50;100670.38;10403742;28;20072;-83
2022/10/04 02:33:57;;;;;;;377.38;20.88;;;;;;;8.51;68.66;100660.03;10418276;28;20048;-82
2022/10/04 02:39:02;;;;;;;309.92;22.40;;;;;;;8.67;68.31;100640.25;10400615;28;20190;-83
2022/10/04 02:44:28;;;;;;;118.40;15.32;;;;;;;8.57;68.55;100631.09;10414205;28;20045;-83
2022/10/04 02:49:43;;;;;;;168.82;14.18;;;;;;;8.59;68.60;100648.38;10400511;28;20060;-83
2022/10/04 02:54:54;;;;;;;309.92;21.05;;;;;;;8.56;68.69;100652.88;10400501;28;20049;-83
2022/10/04 03:00:11;;;;;;;132.93;13.32;;;;;;;8.62;68.75;100650.03;10401593;28;20092;-83
2022/10/04 03:05:13;;;;;;;110.68;12.25;;;;;;;8.72;68.64;100644.38;10397698;28;20061;-83
2022/10/04 03:10:16;;;;;;;224.18;16.13;;;;;;;8.85;68.53;100639.53;10408139;28;20049;-82
2022/10/04 03:15:18;;;;;;;437.00;20.65;;;;;;;8.71;68.04;100641.81;10395602;28;20423;-83
2022/10/04 03:20:20;;;;;;;217.05;16.65;;;;;;;8.53;68.40;100634.75;10394958;28;20058;-82
2022/10/04 03:25:29;;;;;;;606.03;35.00;;;;;;;8.54;68.65;100629.50;10394567;28;20422;-82
2022/10/04 03:30:34;;;;;;;306.60;19.90;;;;;;;8.50;68.92;100629.66;10392236;28;20057;-82
2022/10/04 03:35:39;;;;;;;549.88;26.08;;;;;;;8.44;68.71;100622.09;10410983;28;20136;-83
2022/10/04 03:40:50;;;;;;;192.73;14.18;;;;;;;8.57;69.03;100615.47;10407312;28;20061;-82
2022/10/04 03:45:54;;;;;;;233.55;16.73;;;;;;;8.50;68.58;100609.66;10395485;28;20080;-82
2022/10/04 03:50:57;;;;;;;577.13;31.00;;;;;;;8.43;68.40;100604.75;10415562;28;20049;-82
2022/10/04 03:56:00;;;;;;;217.18;14.18;;;;;;;8.38;68.88;100622.34;10417798;28;20060;-82
2022/10/04 04:01:16;;;;;;;398.45;25.30;;;;;;;8.46;68.50;100615.06;10402916;28;20139;-82
2022/10/04 04:06:19;;;;;;;309.60;17.48;;;;;;;8.57;68.77;100611.09;10401731;28;20053;-82
2022/10/04 04:11:24;;;;;;;292.63;19.63;;;;;;;8.50;68.41;100611.41;10397816;28;20045;-82
2022/10/04 04:16:27;;;;;;;284.48;16.20;;;;;;;8.52;68.53;100605.25;10413185;28;20041;-82
2022/10/04 04:21:30;;;;;;;229.20;16.65;;;;;;;8.59;68.64;100609.28;10396301;28;21133;-82
2022/10/04 04:26:39;;;;;;;283.70;17.17;;;;;;;8.59;67.80;100603.22;10417210;28;20068;-82
2022/10/04 04:31:44;;;;;;;365.50;23.17;;;;;;;8.45;67.43;100598.56;10397591;28;20057;-80
2022/10/04 04:36:46;;;;;;;214.18;17.27;;;;;;;8.20;68.28;100582.19;10418800;28;20136;-80
2022/10/04 04:41:48;;;;;;;277.20;16.83;;;;;;;8.25;68.29;100579.41;10394930;28;20061;-80
2022/10/04 04:46:59;;;;;;;233.13;17.08;;;;;;;8.08;68.15;100577.44;10417399;28;20576;-80
2022/10/04 04:52:02;;;;;;;558.40;28.80;;;;;;;7.78;68.61;100581.25;10398909;28;20111;-81
2022/10/04 04:57:04;;;;;;;401.67;20.45;;;;;;;7.68;69.04;100590.31;10396863;28;20045;-80
2022/10/04 05:02:29;;;;;;;292.88;16.95;;;;;;;7.63;69.36;100595.66;10398351;28;20048;-80
2022/10/04 05:07:31;;;;;;;447.60;23.95;;;;;;;7.70;69.09;100597.16;10397480;28;20053;-80
2022/10/04 05:12:33;;;;;;;300.55;18.17;;;;;;;7.70;69.15;100607.56;10417668;28;20049;-80
2022/10/04 05:17:35;;;;;;;289.90;15.68;;;;;;;7.80;68.96;100608.06;10399625;28;20537;-80
2022/10/04 05:22:44;;;;;;;181.93;18.00;;;;;;;7.82;69.21;100617.53;10399170;28;20411;-82
2022/10/04 05:27:48;;;;;;;537.63;24.63;;;;;;;7.93;68.92;100617.13;10396489;28;20052;-82
2022/10/04 05:33:04;;;;;;;366.45;19.27;;;;;;;7.97;68.92;100619.56;10411866;28;20206;-82
2022/10/04 05:38:32;;;;;;;357.42;19.65;;;;;;;8.02;69.00;100620.22;10411362;28;20049;-82
2022/10/04 05:43:34;;;;;;;209.77;17.98;;;;;;;8.15;69.17;100605.00;10412951;28;20053;-82
2022/10/04 05:48:40;;;;;;;287.70;22.20;;;;;;;8.31;68.88;100606.09;10397416;28;20056;-82
2022/10/04 05:53:42;;;;;;;289.33;21.00;;;;;;;8.41;68.52;100606.56;10413440;28;20057;-82
2022/10/04 05:59:02;;;;;;;284.55;21.05;;;;;;;8.18;67.90;100612.69;10414424;28;20060;-82
2022/10/04 06:04:22;;;;;;;150.80;15.43;;;;;;;8.06;68.67;100626.16;10395664;28;20040;-82
2022/10/04 06:09:43;;;;;;;565.23;32.33;;;;;;;8.21;68.54;100633.41;10394056;28;20072;-82
2022/10/04 06:15:07;;;;;;;241.00;20.85;;;;;;;8.23;68.59;100622.94;10413598;28;20053;-82
2022/10/04 06:20:30;;;;;;;118.63;16.30;;;;;;;8.49;68.44;100610.56;10395413;28;20056;-82
2022/10/04 06:26:00;;;;;;;176.38;13.20;;;;;;;8.39;67.87;100627.47;10413406;28;20045;-82
2022/10/04 06:31:28;;;;;;;131.13;19.48;;;;;;;8.28;68.51;100623.63;10396713;28;20060;-82
2022/10/04 06:37:10;;;;;;;131.10;16.90;;;;;;;8.45;68.13;100623.78;10396439;28;20064;-82
2022/10/04 06:42:32;;;;;;;191.38;15.43;;;;;;;8.67;67.83;100614.16;10414792;28;20049;-82
2022/10/04 06:48:05;;;;;;;180.23;17.33;;;;;;;8.75;67.47;100619.94;10399203;28;20057;-82
2022/10/04 06:53:32;;;;;;;152.07;15.52;;;;;;;8.98;67.15;100608.53;10393798;28;20045;-82
2022/10/04 06:58:55;;;;;;;195.35;15.13;;;;;;;8.96;66.41;100598.16;10399484;28;20060;-82
2022/10/04 07:04:21;;;;;;;409.23;24.35;;;;;;;8.48;66.67;100592.38;10410975;28;20065;-82
2022/10/04 07:09:26;;;;;;;56.40;13.23;;;;;;;8.65;67.75;100588.16;10396662;28;20049;-82
2022/10/04 07:14:36;;;;;;;180.82;13.05;;;;;;;8.75;67.38;100586.88;10410927;28;20053;-82
2022/10/04 07:19:40;;;;;;;48.17;10.10;;;;;;;9.02;67.09;100599.66;10408571;28;20076;-82
2022/10/04 07:25:04;;;;;;;300.73;19.90;;;;;;;9.00;66.34;100589.28;10390158;28;20132;-83
2022/10/04 07:30:10;;;;;;;62.88;10.10;;;;;;;9.17;66.47;100597.25;10418424;28;20061;-83
2022/10/04 07:35:38;;;;;;;67.10;9.15;;;;;;;9.19;65.71;100584.97;10414426;28;20115;-82
2022/10/04 07:41:06;;;;;;;141.40;12.18;;;;;;;8.94;65.66;100592.16;10401508;28;20053;-82
2022/10/04 07:46:20;;;;;;;764.60;31.15;;;;;;;9.10;65.37;100608.84;10400675;28;20053;-83
2022/10/04 07:51:33;;;;;;;226.90;15.73;;;;;;;9.07;65.81;100610.75;10416440;28;20063;-82
2022/10/04 07:57:02;;;;;;;54.05;10.88;;;;;;;9.12;66.07;100611.38;10415659;28;20050;-81
2022/10/04 08:02:21;;;;;;;373.52;21.88;;;;;;;9.52;65.51;100596.53;10402512;28;20064;-82
2022/10/04 08:08:01;;;;;;;99.28;13.27;;;;;;;9.16;65.30;100592.94;10419377;28;20053;-81
2022/10/04 08:13:16;;;;;;;77.30;14.05;;;;;;;9.00;66.72;100599.72;10406910;28;20135;-81
2022/10/04 08:18:42;;;;;;;273.30;15.45;;;;;;;9.02;65.91;100599.66;10400992;28;20981;-81
2022/10/04 08:23:59;;;;;;;179.50;15.02;;;;;;;8.95;66.60;100606.06;10401935;28;20049;-81
2022/10/04 08:35:11;;;;;;;;;;;;;;;8.38;67.20;100609.31;10416825;28;20481;-81
2022/10/04 08:40:44;;;;;;;35.78;12.32;;;;;;;8.77;66.88;100607.69;10403871;28;19929;-81
2022/10/04 08:45:52;;;;;;;290.25;15.95;;;;;;;8.80;66.40;100613.63;10402500;28;20076;-81
2022/10/04 08:51:03;;;;;;;220.20;19.77;;;;;;;9.02;66.29;100623.13;10417251;28;20103;-81
2022/10/04 08:56:37;;;;;;;106.63;15.35;;;;;;;9.15;66.22;100622.56;10418328;28;20048;-81
2022/10/04 09:01:45;;;;;;;258.08;19.55;;;;;;;9.57;65.07;100620.69;10361991;28;20153;-82
2022/10/04 09:07:23;;;;;;;23.85;14.20;;;;;;;9.63;65.12;100619.56;10416235;28;20445;-81
2022/10/04 09:12:33;;;;;;;92.97;18.02;;;;;;;9.74;64.93;100619.97;10365398;28;20049;-81
2022/10/04 09:17:45;;;;;;;26.63;16.13;;;;;;;9.97;65.06;100608.47;10401156;28;20494;-81
2022/10/04 09:22:56;;;;;;;42.35;19.05;;;;;;;9.79;64.82;100606.69;10417365;28;20837;-81
2022/10/04 09:28:01;;;;;;;14.85;11.82;;;;;;;10.29;64.73;100592.09;10401338;28;20056;-82
2022/10/04 09:33:24;;;;;;;24.30;15.05;;;;;;;10.76;63.73;100593.25;10401230;28;20053;-81
2022/10/04 09:38:48;;;;;;;22.70;15.80;;;;;;;10.74;63.04;100586.38;10401656;28;20045;-81
2022/10/04 09:44:47;;;;;;;20.17;14.48;;;;;;;10.91;62.77;100578.53;10418692;28;20045;-81
2022/10/04 09:49:55;;;;;;;23.35;14.60;;;;;;;11.00;62.70;100578.91;10417599;28;20434;-81
2022/10/04 09:55:12;;;;;;;18.73;14.38;;;;;;;11.08;62.38;100576.78;10397699;28;20074;-81
2022/10/04 10:00:23;;;;;;;22.60;14.43;;;;;;;10.92;63.12;100581.06;10400124;28;20054;-81
2022/10/04 10:05:47;;;;;;;22.02;16.00;;;;;;;11.30;62.07;100579.09;10399562;28;20053;-81
2022/10/04 10:17:05;;;;;;;22.25;16.33;;;;;;;12.35;60.28;100564.59;10417647;28;20517;-81
2022/10/04 10:22:30;;;;;;;20.85;16.33;;;;;;;12.18;59.27;100564.66;10400334;28;20053;-81
2022/10/04 10:27:56;;;;;;;22.02;17.15;;;;;;;12.24;60.16;100566.06;10415950;28;20057;-81
2022/10/04 10:33:03;;;;;;;25.45;17.80;;;;;;;12.21;60.63;100567.13;10417322;28;20522;-81
2022/10/04 10:38:30;;;;;;;26.40;17.30;;;;;;;11.89;61.24;100566.28;10397445;28;20494;-80
2022/10/04 10:43:45;;;;;;;25.35;18.17;;;;;;;11.67;61.96;100564.91;10416869;28;20045;-80
2022/10/04 10:49:02;;;;;;;24.85;18.40;;;;;;;11.88;61.03;100567.22;10414921;28;20130;-81
2022/10/04 10:54:25;;;;;;;25.88;18.05;;;;;;;11.77;62.42;100564.31;10398933;28;20048;-81
2022/10/04 10:59:57;;;;;;;23.98;17.25;;;;;;;11.85;62.81;100562.13;10396785;28;20053;-81
2022/10/04 11:05:38;;;;;;;24.67;16.58;;;;;;;11.96;62.02;100554.53;10406043;28;20042;-81
2022/10/04 11:11:18;;;;;;;23.27;16.23;;;;;;;12.34;61.74;100541.91;10407246;28;20060;-79
2022/10/04 11:16:57;;;;;;;22.08;14.63;;;;;;;12.39;62.14;100532.00;10423313;28;20058;-79
2022/10/04 11:22:18;;;;;;;18.55;13.20;;;;;;;12.48;61.20;100527.97;10407179;28;20052;-79
2022/10/04 11:27:45;;;;;;;16.52;11.05;;;;;;;12.67;61.19;100518.09;10422315;28;20056;-78
2022/10/04 11:33:16;;;;;;;17.42;11.57;;;;;;;12.96;60.83;100511.97;10421635;28;20054;-78
2022/10/04 11:38:47;;;;;;;13.73;9.85;;;;;;;13.19;60.66;100503.53;10406162;28;20061;-79
2022/10/04 11:43:55;;;;;;;;;;;;;;;13.28;61.13;100489.84;10422653;28;20092;-79
2022/10/04 11:49:09;;;;;;;17.23;9.82;;;;;;;13.65;60.58;100486.63;10422617;28;19925;-78
2022/10/04 11:54:29;;;;;;;17.98;10.00;;;;;;;13.85;59.59;100479.25;10403508;28;20049;-79
2022/10/04 12:00:00;;;;;;;17.63;8.80;;;;;;;14.10;58.76;100474.09;10421047;28;20059;-78
2022/10/04 12:05:10;;;;;;;12.40;7.90;;;;;;;14.29;59.49;100467.50;10399724;28;20068;-78
2022/10/04 12:10:39;;;;;;;13.23;7.68;;;;;;;14.69;58.30;100452.53;10401382;28;20598;-78
2022/10/04 12:15:59;;;;;;;14.77;7.97;;;;;;;14.86;57.79;100446.94;10416731;28;20063;-79
2022/10/04 12:21:22;;;;;;;13.55;7.70;;;;;;;14.98;57.57;100438.19;10420780;28;20048;-78
2022/10/04 12:26:33;;;;;;;11.68;6.70;;;;;;;15.29;56.81;100432.44;10414101;28;20049;-79
2022/10/04 12:31:42;;;;;;;11.35;7.60;;;;;;;15.57;56.97;100426.03;10420962;28;20057;-80
2022/10/04 12:37:26;;;;;;;13.15;6.38;;;;;;;15.70;55.31;100418.09;10400335;28;20136;-79
2022/10/04 12:42:51;;;;;;;11.63;6.35;;;;;;;15.92;55.41;100411.13;10375263;28;20055;-79
2022/10/04 12:48:05;;;;;;;9.50;5.32;;;;;;;16.06;54.52;100395.09;10399999;28;20049;-79
2022/10/04 12:53:33;;;;;;;10.63;4.80;;;;;;;16.43;53.85;100392.31;10403498;28;20053;-78
2022/10/04 12:58:38;;;;;;;8.82;4.72;;;;;;;16.68;53.65;100384.22;10401825;28;20057;-79
2022/10/04 13:04:01;;;;;;;7.55;4.20;;;;;;;16.67;52.65;100385.19;10401830;28;20056;-79
2022/10/04 13:09:10;;;;;;;6.57;3.33;;;;;;;16.88;52.99;100375.56;10401621;28;20052;-79
2022/10/04 13:14:14;;;;;;;6.72;2.88;;;;;;;17.15;51.60;100377.84;10421258;28;20041;-79
2022/10/04 13:19:33;;;;;;;8.07;3.10;;;;;;;17.37;50.24;100368.09;10414295;28;20057;-78
2022/10/04 13:24:53;;;;;;;8.13;3.45;;;;;;;17.51;48.73;100367.81;10415028;28;20059;-78
2022/10/04 13:30:05;;;;;;;6.15;2.80;;;;;;;17.56;47.59;100368.28;10415351;28;20426;-78
2022/10/04 13:35:21;;;;;;;8.13;3.20;;;;;;;17.72;47.81;100363.41;10418567;28;20045;-78
2022/10/04 13:40:32;;;;;;;7.68;2.70;;;;;;;17.83;48.54;100367.81;10399444;28;20060;-79
2022/10/04 13:45:59;;;;;;;5.57;2.85;;;;;;;17.92;48.01;100355.63;10415013;28;20049;-79
2022/10/04 13:51:14;;;;;;;8.85;3.00;;;;;;;17.95;47.99;100352.72;10397893;28;20103;-78
2022/10/04 13:56:42;;;;;;;5.97;3.03;;;;;;;17.86;47.00;100346.38;10415092;28;20053;-78
2022/10/04 14:01:44;;;;;;;8.10;2.85;;;;;;;18.07;47.25;100346.41;10397867;28;20427;-78
2022/10/04 14:07:22;;;;;;;8.02;3.15;;;;;;;18.17;45.48;100348.16;10414323;28;20487;-78
2022/10/04 14:12:48;;;;;;;6.30;2.85;;;;;;;18.35;45.43;100333.38;10399420;28;20060;-78
2022/10/04 14:18:15;;;;;;;7.70;3.03;;;;;;;18.42;45.96;100317.81;10399083;28;20060;-77
2022/10/04 14:23:36;;;;;;;9.00;3.10;;;;;;;18.40;43.77;100311.81;10398666;28;20589;-78
2022/10/04 14:28:47;;;;;;;;;;;;;;;18.11;45.40;100308.13;10396889;28;20052;-77
2022/10/04 14:34:14;;;;;;;5.75;2.92;;;;;;;18.41;44.84;100305.53;10398947;28;20298;-78
2022/10/04 14:39:44;;;;;;;5.43;3.03;;;;;;;18.38;44.72;100298.66;10387938;28;20518;-78
2022/10/04 14:44:48;;;;;;;7.38;3.25;;;;;;;18.47;45.25;100302.34;10414682;28;20499;-78
2022/10/04 14:49:52;;;;;;;6.95;3.05;;;;;;;18.45;44.95;100299.84;10414316;28;20506;-78
2022/10/04 14:55:19;;;;;;;6.95;2.65;;;;;;;18.35;44.69;100298.09;10397246;28;20053;-78
2022/10/04 15:00:46;;;;;;;6.60;2.90;;;;;;;18.26;45.50;100294.44;10414121;28;20060;-78
2022/10/04 15:05:51;;;;;;;6.55;3.10;;;;;;;18.33;45.68;100300.03;10413369;28;20388;-78
2022/10/04 15:11:00;;;;;;;7.25;3.42;;;;;;;18.25;46.01;100294.56;10398918;28;20426;-77
2022/10/04 15:16:37;;;;;;;8.27;3.40;;;;;;;18.24;46.13;100287.63;10395205;28;20049;-77
2022/10/04 15:21:54;;;;;;;10.68;3.28;;;;;;;18.07;45.96;100288.19;10369780;28;20053;-77
2022/10/04 15:27:34;;;;;;;7.78;3.30;;;;;;;17.85;46.56;100283.88;10396075;28;20412;-76
2022/10/04 15:33:09;;;;;;;8.77;3.58;;;;;;;17.78;46.57;100288.84;10413871;28;20060;-77
2022/10/04 15:38:54;;;;;;;6.78;3.38;;;;;;;17.73;46.63;100291.00;10412747;28;20564;-77
2022/10/04 15:44:12;;;;;;;8.95;3.65;;;;;;;17.57;47.39;100284.47;10394233;28;20049;-77
2022/10/04 15:49:39;;;;;;;9.23;3.80;;;;;;;17.50;47.70;100270.09;10417120;28;20135;-76
2022/10/04 15:54:50;;;;;;;5.40;3.45;;;;;;;17.43;48.67;100250.41;10403847;28;20052;-77
2022/10/04 15:59:55;;;;;;;6.53;3.38;;;;;;;17.19;49.06;100247.97;10403556;28;20140;-77
2022/10/04 16:05:12;;;;;;;9.40;3.53;;;;;;;16.91;49.59;100256.47;10419050;28;20049;-77
2022/10/04 16:10:59;;;;;;;8.25;3.80;;;;;;;16.57;50.19;100254.84;10404385;28;20446;-77
2022/10/04 16:16:24;;;;;;;6.82;3.60;;;;;;;16.28;51.40;100258.91;10398471;28;20046;-77
2022/10/04 16:22:06;;;;;;;6.80;3.60;;;;;;;16.10;51.71;100263.81;10417437;28;20052;-76
2022/10/04 16:27:37;;;;;;;7.43;3.78;;;;;;;15.68;52.66;100274.97;10421186;28;20053;-77
2022/10/04 16:32:41;;;;;;;;;;;;;;;15.10;53.68;100273.16;10398743;28;20050;-77
2022/10/04 16:38:06;;;;;;;9.20;3.90;;;;;;;15.12;53.67;100279.97;10409501;28;19944;-76
2022/10/04 16:43:16;;;;;;;8.25;4.43;;;;;;;14.97;54.23;100281.09;10418929;28;20068;-76
2022/10/04 16:48:39;;;;;;;7.63;4.00;;;;;;;14.85;54.54;100287.25;10400392;28;20159;-76
2022/10/04 16:54:29;;;;;;;6.57;3.80;;;;;;;14.61;55.58;100296.06;10418674;28;20050;-78
2022/10/04 16:59:37;;;;;;;12.52;4.20;;;;;;;14.41;56.18;100306.16;10417497;28;20143;-78
2022/10/04 17:04:50;;;;;;;8.52;4.22;;;;;;;14.22;56.79;100311.00;10399675;28;20049;-78
2022/10/04 17:10:04;;;;;;;9.05;5.13;;;;;;;13.96;57.63;100311.94;10417709;28;21068;-77
2022/10/04 17:15:27;;;;;;;9.43;4.80;;;;;;;13.85;58.18;100316.22;10414628;28;20057;-78
2022/10/04 17:20:50;;;;;;;8.10;4.75;;;;;;;13.66;58.76;100333.22;10413262;28;20053;-78
2022/10/04 17:25:59;;;;;;;8.40;4.90;;;;;;;13.60;58.99;100338.03;10414382;28;20045;-79
2022/10/04 17:31:14;;;;;;;10.48;5.22;;;;;;;13.46;59.41;100346.84;10399922;28;20290;-79
2022/10/04 17:36:40;;;;;;;10.55;5.60;;;;;;;13.20;60.94;100358.16;10392277;28;20049;-79
2022/10/04 17:41:58;;;;;;;12.85;6.25;;;;;;;13.09;61.02;100355.34;10419207;28;20056;-79
2022/10/04 17:47:07;;;;;;;11.75;6.30;;;;;;;13.06;61.11;100357.34;10417563;28;20059;-79
2022/10/04 17:55:14;;;;;;;13.35;6.78;;;;;;;12.99;61.37;100356.88;10403433;28;20059;-79
2022/10/04 17:58:02;;;;;;;12.82;7.43;;;;;;;12.88;61.92;100362.78;10419028;28;20064;-79
2022/10/04 18:03:17;;;;;;;19.30;7.50;;;;;;;12.73;62.87;100362.91;10416902;28;20061;-79
2022/10/04 18:08:27;;;;;;;12.02;7.20;;;;;;;12.69;62.93;100364.88;10400553;28;20060;-79
2022/10/04 18:13:42;;;;;;;18.55;7.78;;;;;;;12.48;63.20;100371.44;10414551;28;20042;-80
2022/10/04 18:18:44;;;;;;;14.10;7.35;;;;;;;12.33;63.67;100364.50;10418376;28;20053;-79
2022/10/04 18:23:55;;;;;;;13.65;7.03;;;;;;;12.28;64.37;100370.91;10401123;28;20780;-79
2022/10/04 18:29:01;;;;;;;13.73;6.75;;;;;;;12.29;64.21;100373.47;10415201;28;20875;-80
2022/10/04 18:34:09;;;;;;;10.60;6.63;;;;;;;12.23;64.41;100381.69;10398873;28;20505;-81
2022/10/04 18:39:11;;;;;;;11.07;6.38;;;;;;;12.11;64.28;100393.72;10399436;28;20494;-79
2022/10/04 18:44:39;;;;;;;9.98;6.60;;;;;;;12.06;64.82;100385.28;10400373;28;20147;-80
2022/10/04 18:49:49;;;;;;;10.32;6.93;;;;;;;12.02;65.03;100394.28;10400411;28;20053;-79
2022/10/04 18:55:15;;;;;;;13.40;7.38;;;;;;;11.88;64.95;100398.63;10417696;28;20072;-80
2022/10/04 19:06:06;;;;;;;10.97;7.23;;;;;;;11.65;65.62;100407.78;10416747;28;20045;-80
2022/10/04 19:11:25;;;;;;;13.30;6.90;;;;;;;11.64;65.42;100413.13;10415985;28;20049;-80
2022/10/04 19:16:41;;;;;;;11.35;6.60;;;;;;;11.58;65.54;100419.53;10414456;28;20115;-80
2022/10/04 19:22:20;;;;;;;15.48;7.80;;;;;;;11.39;65.93;100415.41;10397603;28;20052;-80
2022/10/04 19:27:43;;;;;;;13.93;7.50;;;;;;;11.35;65.81;100412.13;10420174;28;20042;-80
2022/10/04 19:33:28;;;;;;;13.57;7.55;;;;;;;11.20;66.10;100419.06;10405278;28;21106;-80
2022/10/04 19:39:03;;;;;;;15.73;7.78;;;;;;;11.13;65.90;100424.72;10399516;28;20081;-80
2022/10/04 19:44:45;;;;;;;14.25;7.70;;;;;;;10.99;66.52;100414.13;10408175;28;20061;-80
2022/10/04 19:49:59;;;;;;;13.77;7.45;;;;;;;10.96;66.51;100427.34;10424308;28;20056;-81
2022/10/04 19:55:41;;;;;;;14.43;7.03;;;;;;;10.86;66.66;100434.00;10406348;28;20060;-80
2022/10/04 20:00:45;;;;;;;15.88;8.90;;;;;;;10.83;66.65;100424.53;10405279;28;20806;-80
2022/10/04 20:05:53;;;;;;;14.68;8.60;;;;;;;10.72;66.89;100432.13;10406280;28;20050;-81
2022/10/04 20:11:13;;;;;;;13.43;8.27;;;;;;;10.59;67.13;100425.81;10403757;28;20055;-80
2022/10/04 20:16:47;;;;;;;15.60;8.80;;;;;;;10.55;66.83;100420.81;10421245;28;20049;-80
2022/10/04 20:21:50;;;;;;;14.98;8.45;;;;;;;10.58;66.97;100424.16;10403003;28;20060;-81
2022/10/04 20:26:52;;;;;;;10.35;7.60;;;;;;;10.57;66.75;100424.19;10401835;28;20045;-80
2022/10/04 20:31:56;;;;;;;16.00;9.35;;;;;;;10.48;66.66;100418.53;10404225;28;20083;-81
2022/10/04 20:36:58;;;;;;;15.65;9.18;;;;;;;10.37;66.99;100420.84;10415855;28;20517;-81
2022/10/04 20:42:24;;;;;;;14.98;8.13;;;;;;;10.24;67.46;100404.09;10416477;28;20060;-81
2022/10/04 20:47:28;;;;;;;14.18;9.75;;;;;;;10.18;66.99;100383.50;10404411;28;20064;-81
2022/10/04 20:52:33;;;;;;;15.82;8.20;;;;;;;10.18;67.14;100388.72;10416486;28;20549;-81
2022/10/04 20:57:39;;;;;;;15.23;9.50;;;;;;;10.10;66.79;100390.88;10419840;28;20049;-80
2022/10/04 21:02:41;;;;;;;18.45;10.15;;;;;;;9.84;67.28;100391.34;10417938;28;20055;-81
2022/10/04 21:07:43;;;;;;;23.00;10.52;;;;;;;9.76;67.44;100390.03;10402312;28;20505;-81
2022/10/04 21:12:45;;;;;;;14.98;9.45;;;;;;;9.80;67.54;100386.34;10420177;28;20422;-81
2022/10/04 21:17:59;;;;;;;22.90;10.20;;;;;;;9.67;67.74;100386.09;10401620;28;20053;-80
2022/10/04 21:23:15;;;;;;;19.30;9.25;;;;;;;9.60;67.98;100385.53;10402118;28;20385;-80
2022/10/04 21:28:30;;;;;;;16.63;8.43;;;;;;;9.65;67.91;100382.69;10401765;28;20525;-81
2022/10/04 21:33:32;;;;;;;17.95;10.00;;;;;;;9.72;67.55;100378.03;10402479;28;20137;-81
2022/10/04 21:38:34;;;;;;;21.15;10.20;;;;;;;9.67;67.42;100385.25;10418781;28;20045;-80
2022/10/04 21:43:36;;;;;;;19.48;11.20;;;;;;;9.45;67.21;100395.84;10416963;28;20057;-81
2022/10/04 21:48:37;;;;;;;16.58;8.60;;;;;;;9.43;67.66;100400.28;10416001;28;20506;-80
2022/10/04 21:53:39;;;;;;;19.17;8.95;;;;;;;9.49;67.53;100392.16;10400099;28;20049;-81
2022/10/04 21:59:14;;;;;;;35.33;11.48;;;;;;;9.40;67.61;100387.41;10402539;28;20060;-81
2022/10/04 22:04:23;;;;;;;47.95;11.90;;;;;;;9.18;67.44;100384.94;10416279;28;20049;-81
2022/10/04 22:09:28;;;;;;;11.82;8.55;;;;;;;9.20;67.73;100380.50;10397254;28;20144;-80
2022/10/04 22:14:32;;;;;;;22.40;9.07;;;;;;;9.26;67.49;100390.66;10418775;28;20041;-81
2022/10/04 22:19:35;;;;;;;98.30;10.93;;;;;;;9.23;67.61;100385.59;10398331;28;20050;-81
2022/10/04 22:24:41;;;;;;;89.40;10.95;;;;;;;9.08;67.43;100398.47;10399039;28;20135;-81
2022/10/04 22:29:47;;;;;;;124.70;13.57;;;;;;;8.95;67.60;100400.84;10416560;28;20502;-81
2022/10/04 22:35:09;;;;;;;170.18;14.68;;;;;;;8.84;67.85;100392.63;10400231;28;20041;-81
2022/10/04 22:40:13;;;;;;;173.80;14.00;;;;;;;8.85;68.15;100395.16;10415599;28;21086;-80
2022/10/04 22:45:20;;;;;;;51.78;10.38;;;;;;;8.85;68.45;100396.94;10397437;28;20053;-80
2022/10/04 22:50:34;;;;;;;31.92;9.50;;;;;;;8.91;68.00;100401.03;10415440;28;20053;-81
2022/10/04 22:55:35;;;;;;;88.75;11.23;;;;;;;8.88;67.65;100383.75;10398909;28;20128;-81
2022/10/04 23:00:37;;;;;;;94.50;11.82;;;;;;;8.91;67.80;100393.22;10415372;28;20414;-81
2022/10/04 23:05:39;;;;;;;150.10;11.65;;;;;;;8.83;67.93;100388.34;10414738;28;20072;-81
2022/10/04 23:10:41;;;;;;;179.98;15.88;;;;;;;8.77;67.82;100384.22;10398026;28;20053;-81
2022/10/04 23:15:42;;;;;;;66.38;12.63;;;;;;;8.64;68.04;100390.94;10398245;28;20053;-81
2022/10/04 23:20:51;;;;;;;208.05;15.38;;;;;;;8.58;67.63;100395.56;10414375;28;20522;-81
2022/10/04 23:25:53;;;;;;;227.85;15.20;;;;;;;8.50;68.11;100385.50;10397149;28;20041;-81
2022/10/04 23:31:11;;;;;;;463.15;26.40;;;;;;;8.39;68.35;100386.84;10415080;28;20185;-81
2022/10/04 23:36:14;;;;;;;283.05;16.63;;;;;;;8.46;68.13;100375.25;10396661;28;20077;-81
2022/10/04 23:41:18;;;;;;;333.02;14.10;;;;;;;8.45;68.40;100376.16;10410893;28;20067;-80
2022/10/04 23:46:23;;;;;;;821.08;31.92;;;;;;;8.39;68.12;100366.00;10396789;28;20045;-81
2022/10/04 23:51:25;;;;;;;386.15;17.05;;;;;;;8.27;68.25;100371.75;10397398;28;20092;-80
2022/10/04 23:56:28;;;;;;;160.05;11.60;;;;;;;8.32;68.28;100367.19;10415536;28;20045;-81
